sensor_id;sensor_type;location;lat;lon;timestamp;pressure;altitude;pressure_sealevel;temperature;humidity
60725;BME280;59881;36.722;-4.462;2023-05-29T00:00:13;100702.38;;;19.07;56.97
60725;BME280;59881;36.722;-4.462;2023-05-29T00:02:41;100660.56;;;18.71;56.97
60725;BME280;59881;36.722;-4.462;2023-05-29T00:05:13;100480.91;;;17.48;56.80
60725;BME280;59881;36.722;-4.462;2023-05-29T00:07:40;100588.22;;;18.30;57.16
60725;BME280;59881;36.722;-4.462;2023-05-29T00:10:07;100698.66;;;18.99;57.25
60725;BME280;59881;36.722;-4.462;2023-05-29T00:12:33;100547.91;;;18.07;57.21
60725;BME280;59881;36.722;-4.462;2023-05-29T00:14:59;100507.16;;;17.43;57.45
60725;BME280;59881;36.722;-4.462;2023-05-29T00:17:25;100743.53;;;18.96;57.56
60725;BME280;59881;36.722;-4.462;2023-05-29T00:19:50;100429.25;;;17.23;57.37
60725;BME280;59881;36.722;-4.462;2023-05-29T00:22:16;100654.94;;;18.56;57.44
60725;BME280;59881;36.722;-4.462;2023-05-29T00:24:42;100539.97;;;18.15;57.70
60725;BME280;59881;36.722;-4.462;2023-05-29T00:27:07;100673.28;;;18.95;57.19
60725;BME280;59881;36.722;-4.462;2023-05-29T00:29:34;100612.81;;;18.60;57.49
60725;BME280;59881;36.722;-4.462;2023-05-29T00:32:01;100565.22;;;18.29;57.18
60725;BME280;59881;36.722;-4.462;2023-05-29T00:34:27;100350.59;;;16.93;57.14
60725;BME280;59881;36.722;-4.462;2023-05-29T00:36:52;100616.16;;;18.44;57.10
60725;BME280;59881;36.722;-4.462;2023-05-29T00:39:19;100598.28;;;18.36;57.68
60725;BME280;59881;36.722;-4.462;2023-05-29T00:41:45;100205.72;;;15.88;57.71
60725;BME280;59881;36.722;-4.462;2023-05-29T00:44:11;100414.41;;;17.03;58.13
60725;BME280;59881;36.722;-4.462;2023-05-29T00:46:36;100693.28;;;18.73;57.83
60725;BME280;59881;36.722;-4.462;2023-05-29T00:49:03;100661.03;;;18.67;57.70
60725;BME280;59881;36.722;-4.462;2023-05-29T00:51:29;100386.47;;;16.89;57.98
60725;BME280;59881;36.722;-4.462;2023-05-29T00:53:57;100409.16;;;17.11;58.13
60725;BME280;59881;36.722;-4.462;2023-05-29T00:56:24;100359.38;;;16.75;58.25
60725;BME280;59881;36.722;-4.462;2023-05-29T00:58:51;100379.34;;;16.89;58.52
60725;BME280;59881;36.722;-4.462;2023-05-29T01:01:18;100499.47;;;17.76;58.60
60725;BME280;59881;36.722;-4.462;2023-05-29T01:03:44;100636.34;;;18.65;58.79
60725;BME280;59881;36.722;-4.462;2023-05-29T01:06:10;100354.25;;;16.64;58.32
60725;BME280;59881;36.722;-4.462;2023-05-29T01:08:36;100632.94;;;18.36;58.65
60725;BME280;59881;36.722;-4.462;2023-05-29T01:11:31;100633.13;;;18.61;58.69
60725;BME280;59881;36.722;-4.462;2023-05-29T01:14:07;100616.44;;;18.59;58.51
60725;BME280;59881;36.722;-4.462;2023-05-29T01:16:46;100630.78;;;18.58;58.71
60725;BME280;59881;36.722;-4.462;2023-05-29T01:27:45;100632.03;;;18.46;59.05
60725;BME280;59881;36.722;-4.462;2023-05-29T01:30:14;100260.06;;;15.93;59.20
60725;BME280;59881;36.722;-4.462;2023-05-29T01:32:41;100708.78;;;18.34;59.05
60725;BME280;59881;36.722;-4.462;2023-05-29T01:35:07;100141.66;;;15.36;59.30
60725;BME280;59881;36.722;-4.462;2023-05-29T01:37:33;100365.97;;;16.71;59.32
60725;BME280;59881;36.722;-4.462;2023-05-29T01:39:59;100311.91;;;16.35;59.50
60725;BME280;59881;36.722;-4.462;2023-05-29T01:42:26;100542.56;;;17.71;59.89
60725;BME280;59881;36.722;-4.462;2023-05-29T01:44:53;100613.25;;;18.11;59.86
60725;BME280;59881;36.722;-4.462;2023-05-29T01:47:19;100605.53;;;18.08;60.58
60725;BME280;59881;36.722;-4.462;2023-05-29T01:49:47;100601.50;;;18.04;60.38
60725;BME280;59881;36.722;-4.462;2023-05-29T01:52:15;100526.56;;;17.53;60.46
60725;BME280;59881;36.722;-4.462;2023-05-29T01:54:41;100471.16;;;17.21;60.66
60725;BME280;59881;36.722;-4.462;2023-05-29T01:57:06;100173.44;;;15.18;60.57
60725;BME280;59881;36.722;-4.462;2023-05-29T01:59:33;100594.28;;;17.96;61.14
60725;BME280;59881;36.722;-4.462;2023-05-29T02:02:06;100597.09;;;17.95;60.86
60725;BME280;59881;36.722;-4.462;2023-05-29T02:04:31;100693.03;;;17.95;61.35
60725;BME280;59881;36.722;-4.462;2023-05-29T02:06:57;100229.28;;;15.73;61.56
60725;BME280;59881;36.722;-4.462;2023-05-29T02:09:23;100325.53;;;15.95;61.60
60725;BME280;59881;36.722;-4.462;2023-05-29T02:11:48;100344.88;;;16.42;61.26
60725;BME280;59881;36.722;-4.462;2023-05-29T02:14:14;100103.66;;;14.70;61.61
60725;BME280;59881;36.722;-4.462;2023-05-29T02:16:39;100661.22;;;17.93;61.37
60725;BME280;59881;36.722;-4.462;2023-05-29T02:19:06;100604.03;;;17.88;61.59
60725;BME280;59881;36.722;-4.462;2023-05-29T02:21:31;100599.84;;;17.85;62.00
60725;BME280;59881;36.722;-4.462;2023-05-29T02:23:57;100603.34;;;17.86;62.18
60725;BME280;59881;36.722;-4.462;2023-05-29T02:26:22;100334.53;;;16.11;62.05
60725;BME280;59881;36.722;-4.462;2023-05-29T02:28:48;100387.13;;;16.45;62.20
60725;BME280;59881;36.722;-4.462;2023-05-29T02:31:13;100315.16;;;16.01;62.45
60725;BME280;59881;36.722;-4.462;2023-05-29T02:33:39;99911.38;;;13.52;62.45
60725;BME280;59881;36.722;-4.462;2023-05-29T02:36:04;100601.22;;;17.79;62.73
60725;BME280;59881;36.722;-4.462;2023-05-29T02:38:35;100298.03;;;15.76;62.90
60725;BME280;59881;36.722;-4.462;2023-05-29T02:41:01;100237.16;;;14.88;63.14
60725;BME280;59881;36.722;-4.462;2023-05-29T02:43:26;100493.34;;;17.12;63.31
60725;BME280;59881;36.722;-4.462;2023-05-29T02:45:52;100647.41;;;17.80;63.32
60725;BME280;59881;36.722;-4.462;2023-05-29T02:48:17;100160.75;;;15.11;63.35
60725;BME280;59881;36.722;-4.462;2023-05-29T02:50:43;100528.50;;;17.33;63.58
60725;BME280;59881;36.722;-4.462;2023-05-29T02:53:08;100556.22;;;17.41;63.65
60725;BME280;59881;36.722;-4.462;2023-05-29T02:55:34;100595.53;;;17.74;63.72
60725;BME280;59881;36.722;-4.462;2023-05-29T02:58:01;100661.44;;;17.72;63.50
60725;BME280;59881;36.722;-4.462;2023-05-29T03:00:26;100109.22;;;14.67;63.51
60725;BME280;59881;36.722;-4.462;2023-05-29T03:02:54;100148.13;;;14.86;63.61
60725;BME280;59881;36.722;-4.462;2023-05-29T03:05:20;100467.47;;;16.39;63.59
60725;BME280;59881;36.722;-4.462;2023-05-29T03:07:45;100454.50;;;16.64;63.65
60725;BME280;59881;36.722;-4.462;2023-05-29T03:10:11;100395.91;;;15.81;63.85
60725;BME280;59881;36.722;-4.462;2023-05-29T03:12:37;99772.41;;;12.41;64.11
60725;BME280;59881;36.722;-4.462;2023-05-29T03:15:03;99952.59;;;13.45;64.60
60725;BME280;59881;36.722;-4.462;2023-05-29T03:17:29;100677.59;;;17.33;64.83
60725;BME280;59881;36.722;-4.462;2023-05-29T03:19:54;100591.06;;;17.29;64.90
60725;BME280;59881;36.722;-4.462;2023-05-29T03:22:20;100597.66;;;17.25;65.06
60725;BME280;59881;36.722;-4.462;2023-05-29T03:24:46;100589.09;;;17.22;65.24
60725;BME280;59881;36.722;-4.462;2023-05-29T03:27:11;100576.69;;;17.12;65.45
60725;BME280;59881;36.722;-4.462;2023-05-29T03:29:37;100371.13;;;15.90;65.57
60725;BME280;59881;36.722;-4.462;2023-05-29T03:32:02;100104.34;;;13.94;65.88
60725;BME280;59881;36.722;-4.462;2023-05-29T03:34:28;100489.19;;;16.62;66.00
60725;BME280;59881;36.722;-4.462;2023-05-29T03:36:54;100578.22;;;17.15;66.43
60725;BME280;59881;36.722;-4.462;2023-05-29T03:39:19;100590.56;;;17.16;66.76
60725;BME280;59881;36.722;-4.462;2023-05-29T03:41:45;100314.97;;;15.56;66.63
60725;BME280;59881;36.722;-4.462;2023-05-29T03:44:10;100606.22;;;16.91;66.68
60725;BME280;59881;36.722;-4.462;2023-05-29T03:46:36;100295.34;;;15.29;66.89
60725;BME280;59881;36.722;-4.462;2023-05-29T03:49:01;100599.00;;;17.02;67.14
60725;BME280;59881;36.722;-4.462;2023-05-29T03:51:27;100323.25;;;15.43;67.18
60725;BME280;59881;36.722;-4.462;2023-05-29T03:53:52;100208.44;;;14.64;67.51
60725;BME280;59881;36.722;-4.462;2023-05-29T03:56:18;100149.38;;;14.14;67.70
60725;BME280;59881;36.722;-4.462;2023-05-29T03:58:43;100241.75;;;14.86;68.30
60725;BME280;59881;36.722;-4.462;2023-05-29T04:01:09;100572.97;;;16.95;68.56
60725;BME280;59881;36.722;-4.462;2023-05-29T04:03:34;100459.69;;;16.28;68.57
60725;BME280;59881;36.722;-4.462;2023-05-29T04:06:00;100573.53;;;16.99;68.85
60725;BME280;59881;36.722;-4.462;2023-05-29T04:08:26;100571.00;;;16.98;68.95
60725;BME280;59881;36.722;-4.462;2023-05-29T04:10:52;100500.41;;;16.09;68.59
60725;BME280;59881;36.722;-4.462;2023-05-29T04:13:19;100580.13;;;16.95;68.93
60725;BME280;59881;36.722;-4.462;2023-05-29T04:15:45;100384.13;;;15.64;68.62
60725;BME280;59881;36.722;-4.462;2023-05-29T04:18:11;100535.25;;;16.06;68.46
60725;BME280;59881;36.722;-4.462;2023-05-29T04:20:36;100578.66;;;16.83;68.60
60725;BME280;59881;36.722;-4.462;2023-05-29T04:23:02;100591.25;;;16.81;68.55
60725;BME280;59881;36.722;-4.462;2023-05-29T04:25:27;100081.06;;;13.69;68.67
60725;BME280;59881;36.722;-4.462;2023-05-29T04:27:53;100600.63;;;16.65;69.14
60725;BME280;59881;36.722;-4.462;2023-05-29T04:30:18;100587.59;;;16.82;69.02
60725;BME280;59881;36.722;-4.462;2023-05-29T04:32:44;99355.84;;;9.03;68.64
60725;BME280;59881;36.722;-4.462;2023-05-29T04:35:10;100464.78;;;16.02;69.11
60725;BME280;59881;36.722;-4.462;2023-05-29T04:37:36;100518.44;;;16.15;69.33
60725;BME280;59881;36.722;-4.462;2023-05-29T04:40:07;100594.97;;;16.78;69.63
60725;BME280;59881;36.722;-4.462;2023-05-29T04:42:37;100435.13;;;15.67;69.54
60725;BME280;59881;36.722;-4.462;2023-05-29T04:45:05;100473.31;;;15.96;69.70
60725;BME280;59881;36.722;-4.462;2023-05-29T04:47:31;100035.97;;;13.30;69.42
60725;BME280;59881;36.722;-4.462;2023-05-29T04:49:59;100594.59;;;16.73;70.24
60725;BME280;59881;36.722;-4.462;2023-05-29T04:52:25;100601.72;;;16.72;70.02
60725;BME280;59881;36.722;-4.462;2023-05-29T04:54:50;100270.50;;;14.72;69.81
60725;BME280;59881;36.722;-4.462;2023-05-29T04:57:16;100602.03;;;16.69;70.20
60725;BME280;59881;36.722;-4.462;2023-05-29T04:59:41;100602.88;;;16.70;70.26
60725;BME280;59881;36.722;-4.462;2023-05-29T05:02:07;100316.19;;;14.95;70.27
60725;BME280;59881;36.722;-4.462;2023-05-29T05:04:32;100657.47;;;16.74;70.49
60725;BME280;59881;36.722;-4.462;2023-05-29T05:06:58;100608.19;;;16.80;70.79
60725;BME280;59881;36.722;-4.462;2023-05-29T05:09:24;100612.94;;;16.86;70.84
60725;BME280;59881;36.722;-4.462;2023-05-29T05:11:49;100381.06;;;15.49;70.75
60725;BME280;59881;36.722;-4.462;2023-05-29T05:14:15;100451.22;;;15.56;70.52
60725;BME280;59881;36.722;-4.462;2023-05-29T05:16:40;100297.16;;;15.09;70.57
60725;BME280;59881;36.722;-4.462;2023-05-29T05:19:06;100039.91;;;13.55;70.09
60725;BME280;59881;36.722;-4.462;2023-05-29T05:21:32;100439.09;;;15.73;69.95
60725;BME280;59881;36.722;-4.462;2023-05-29T05:23:58;100499.97;;;16.70;69.57
60725;BME280;59881;36.722;-4.462;2023-05-29T05:26:24;100245.97;;;14.60;69.13
60725;BME280;59881;36.722;-4.462;2023-05-29T05:28:51;100473.31;;;15.86;69.26
60725;BME280;59881;36.722;-4.462;2023-05-29T05:31:16;100681.84;;;18.63;68.06
60725;BME280;59881;36.722;-4.462;2023-05-29T05:33:42;100388.84;;;17.90;66.25
60725;BME280;59881;36.722;-4.462;2023-05-29T05:36:07;100619.41;;;19.85;63.82
60725;BME280;59881;36.722;-4.462;2023-05-29T05:38:33;100617.78;;;20.41;61.62
60725;BME280;59881;36.722;-4.462;2023-05-29T05:40:58;100605.50;;;20.96;60.03
60725;BME280;59881;36.722;-4.462;2023-05-29T05:43:24;100622.56;;;21.51;57.63
60725;BME280;59881;36.722;-4.462;2023-05-29T05:45:51;100624.13;;;22.00;55.94
60725;BME280;59881;36.722;-4.462;2023-05-29T05:48:17;100676.00;;;22.61;53.91
60725;BME280;59881;36.722;-4.462;2023-05-29T05:50:42;100200.53;;;20.48;52.16
60725;BME280;59881;36.722;-4.462;2023-05-29T05:53:08;100360.53;;;22.06;50.22
60725;BME280;59881;36.722;-4.462;2023-05-29T05:55:33;100141.06;;;20.99;49.00
60725;BME280;59881;36.722;-4.462;2023-05-29T05:57:59;100525.56;;;23.72;47.84
60725;BME280;59881;36.722;-4.462;2023-05-29T06:00:24;100137.72;;;22.07;46.76
60725;BME280;59881;36.722;-4.462;2023-05-29T06:02:51;100359.22;;;23.19;45.35
60725;BME280;59881;36.722;-4.462;2023-05-29T06:05:16;100587.91;;;25.51;44.49
60725;BME280;59881;36.722;-4.462;2023-05-29T06:07:42;100444.47;;;24.66;43.65
60725;BME280;59881;36.722;-4.462;2023-05-29T06:10:07;100396.75;;;25.15;42.52
60725;BME280;59881;36.722;-4.462;2023-05-29T06:12:33;100625.34;;;27.21;41.72
60725;BME280;59881;36.722;-4.462;2023-05-29T06:15:00;100437.59;;;26.45;40.81
60725;BME280;59881;36.722;-4.462;2023-05-29T06:17:25;100631.53;;;27.80;40.18
60725;BME280;59881;36.722;-4.462;2023-05-29T06:19:52;100636.81;;;27.68;40.04
60725;BME280;59881;36.722;-4.462;2023-05-29T06:22:18;100644.56;;;27.58;40.17
60725;BME280;59881;36.722;-4.462;2023-05-29T06:24:44;100425.41;;;26.22;40.09
60725;BME280;59881;36.722;-4.462;2023-05-29T06:27:09;100637.44;;;27.70;40.06
60725;BME280;59881;36.722;-4.462;2023-05-29T06:29:35;100637.75;;;27.87;39.65
60725;BME280;59881;36.722;-4.462;2023-05-29T06:32:01;100305.66;;;26.04;39.60
60725;BME280;59881;36.722;-4.462;2023-05-29T06:34:27;100642.75;;;28.47;38.45
60725;BME280;59881;36.722;-4.462;2023-05-29T06:36:52;100643.03;;;28.39;37.81
60725;BME280;59881;36.722;-4.462;2023-05-29T06:39:18;100648.94;;;28.29;38.23
60725;BME280;59881;36.722;-4.462;2023-05-29T06:41:45;100670.44;;;28.24;38.49
60725;BME280;59881;36.722;-4.462;2023-05-29T06:44:10;100527.84;;;27.54;38.35
60725;BME280;59881;36.722;-4.462;2023-05-29T06:46:36;100436.50;;;27.11;37.81
60725;BME280;59881;36.722;-4.462;2023-05-29T06:49:02;100457.69;;;27.78;37.39
60725;BME280;59881;36.722;-4.462;2023-05-29T06:51:27;100260.69;;;26.68;36.84
60725;BME280;59881;36.722;-4.462;2023-05-29T06:53:53;100539.25;;;28.82;36.35
60725;BME280;59881;36.722;-4.462;2023-05-29T06:56:18;100291.84;;;27.52;36.15
60725;BME280;59881;36.722;-4.462;2023-05-29T06:58:43;100554.66;;;29.00;35.92
60725;BME280;59881;36.722;-4.462;2023-05-29T07:01:11;100391.84;;;28.27;35.67
60725;BME280;59881;36.722;-4.462;2023-05-29T07:03:36;100352.09;;;28.40;35.33
60725;BME280;59881;36.722;-4.462;2023-05-29T07:06:02;100594.34;;;29.80;34.36
60725;BME280;59881;36.722;-4.462;2023-05-29T07:08:28;100103.06;;;27.17;34.28
60725;BME280;59881;36.722;-4.462;2023-05-29T07:10:53;100635.06;;;30.76;34.33
60725;BME280;59881;36.722;-4.462;2023-05-29T07:13:19;100427.81;;;29.74;33.77
60725;BME280;59881;36.722;-4.462;2023-05-29T07:15:45;100365.66;;;29.30;34.18
60725;BME280;59881;36.722;-4.462;2023-05-29T07:18:11;100637.63;;;31.06;33.71
60725;BME280;59881;36.722;-4.462;2023-05-29T07:20:37;100258.13;;;28.71;33.57
60725;BME280;59881;36.722;-4.462;2023-05-29T07:23:02;100633.66;;;31.49;33.20
60725;BME280;59881;36.722;-4.462;2023-05-29T07:25:29;100303.97;;;29.61;32.17
60725;BME280;59881;36.722;-4.462;2023-05-29T07:27:55;100266.19;;;29.60;32.13
60725;BME280;59881;36.722;-4.462;2023-05-29T07:30:21;100631.59;;;32.47;31.58
60725;BME280;59881;36.722;-4.462;2023-05-29T07:32:46;100611.41;;;32.82;30.91
60725;BME280;59881;36.722;-4.462;2023-05-29T07:35:12;100553.88;;;32.84;30.04
60725;BME280;59881;36.722;-4.462;2023-05-29T07:37:37;100414.56;;;32.24;29.70
60725;BME280;59881;36.722;-4.462;2023-05-29T07:40:03;100390.34;;;31.89;29.59
60725;BME280;59881;36.722;-4.462;2023-05-29T07:42:31;100629.06;;;33.63;29.62
60725;BME280;59881;36.722;-4.462;2023-05-29T07:44:58;100438.25;;;32.46;29.57
60725;BME280;59881;36.722;-4.462;2023-05-29T07:47:23;100629.91;;;34.55;28.55
60725;BME280;59881;36.722;-4.462;2023-05-29T07:49:49;100588.75;;;34.72;28.07
60725;BME280;59881;36.722;-4.462;2023-05-29T07:52:15;100424.22;;;34.00;27.33
60725;BME280;59881;36.722;-4.462;2023-05-29T07:54:41;100575.25;;;35.18;26.74
60725;BME280;59881;36.722;-4.462;2023-05-29T07:57:06;100581.88;;;35.32;27.06
60725;BME280;59881;36.722;-4.462;2023-05-29T07:59:40;100354.13;;;34.31;26.75
60725;BME280;59881;36.722;-4.462;2023-05-29T08:02:06;100617.34;;;36.57;25.73
60725;BME280;59881;36.722;-4.462;2023-05-29T08:04:32;100589.03;;;36.77;25.18
60725;BME280;59881;36.722;-4.462;2023-05-29T08:06:59;100603.03;;;36.85;24.84
60725;BME280;59881;36.722;-4.462;2023-05-29T08:09:25;100517.22;;;36.44;24.93
60725;BME280;59881;36.722;-4.462;2023-05-29T08:11:51;100566.91;;;37.23;24.32
60725;BME280;59881;36.722;-4.462;2023-05-29T08:14:16;100621.28;;;38.15;24.03
60725;BME280;59881;36.722;-4.462;2023-05-29T08:16:42;100335.31;;;36.54;23.86
60725;BME280;59881;36.722;-4.462;2023-05-29T08:19:08;100397.59;;;37.03;23.68
60725;BME280;59881;36.722;-4.462;2023-05-29T08:21:33;100664.56;;;38.92;23.42
60725;BME280;59881;36.722;-4.462;2023-05-29T08:23:59;100476.09;;;38.12;22.95
60725;BME280;59881;36.722;-4.462;2023-05-29T08:26:26;100487.84;;;38.42;23.00
60725;BME280;59881;36.722;-4.462;2023-05-29T08:28:51;100404.84;;;37.57;22.58
60725;BME280;59881;36.722;-4.462;2023-05-29T08:31:17;100513.25;;;38.09;22.42
60725;BME280;59881;36.722;-4.462;2023-05-29T08:33:42;100428.91;;;37.71;22.61
60725;BME280;59881;36.722;-4.462;2023-05-29T08:36:08;100685.81;;;39.40;22.33
60725;BME280;59881;36.722;-4.462;2023-05-29T08:38:34;100689.41;;;39.59;21.62
60725;BME280;59881;36.722;-4.462;2023-05-29T08:41:00;100552.91;;;39.24;21.58
60725;BME280;59881;36.722;-4.462;2023-05-29T08:43:30;100426.81;;;39.02;20.71
60725;BME280;59881;36.722;-4.462;2023-05-29T08:46:00;100649.19;;;40.89;20.23
60725;BME280;59881;36.722;-4.462;2023-05-29T08:48:27;100676.72;;;40.94;19.37
60725;BME280;59881;36.722;-4.462;2023-05-29T08:50:54;100535.13;;;40.33;19.32
60725;BME280;59881;36.722;-4.462;2023-05-29T08:53:24;100643.66;;;41.31;19.21
60725;BME280;59881;36.722;-4.462;2023-05-29T08:55:51;100338.44;;;39.31;18.82
60725;BME280;59881;36.722;-4.462;2023-05-29T08:58:19;100633.97;;;40.92;19.06
60725;BME280;59881;36.722;-4.462;2023-05-29T09:00:49;100642.16;;;40.83;19.15
60725;BME280;59881;36.722;-4.462;2023-05-29T09:03:16;100591.41;;;40.79;18.91
60725;BME280;59881;36.722;-4.462;2023-05-29T09:05:42;100624.06;;;41.77;18.45
60725;BME280;59881;36.722;-4.462;2023-05-29T09:08:10;100434.06;;;41.24;17.63
60725;BME280;59881;36.722;-4.462;2023-05-29T09:10:46;100612.66;;;42.47;17.44
60725;BME280;59881;36.722;-4.462;2023-05-29T09:13:12;100641.47;;;42.77;17.01
60725;BME280;59881;36.722;-4.462;2023-05-29T09:15:39;100637.06;;;42.76;17.11
60725;BME280;59881;36.722;-4.462;2023-05-29T09:18:08;100685.78;;;42.77;16.64
60725;BME280;59881;36.722;-4.462;2023-05-29T09:20:34;100425.63;;;41.52;17.18
60725;BME280;59881;36.722;-4.462;2023-05-29T09:23:07;100525.13;;;42.28;16.62
60725;BME280;59881;36.722;-4.462;2023-05-29T09:25:39;100380.66;;;41.69;16.47
60725;BME280;59881;36.722;-4.462;2023-05-29T09:28:06;100464.69;;;42.22;15.83
60725;BME280;59881;36.722;-4.462;2023-05-29T09:30:40;100531.75;;;42.50;15.76
60725;BME280;59881;36.722;-4.462;2023-05-29T09:33:08;100626.25;;;43.14;15.55
60725;BME280;59881;36.722;-4.462;2023-05-29T09:35:34;100627.56;;;43.17;15.41
60725;BME280;59881;36.722;-4.462;2023-05-29T09:38:01;100624.88;;;43.52;15.27
60725;BME280;59881;36.722;-4.462;2023-05-29T09:40:30;100302.91;;;41.30;15.77
60725;BME280;59881;36.722;-4.462;2023-05-29T09:42:55;100537.91;;;42.47;15.79
60725;BME280;59881;36.722;-4.462;2023-05-29T09:45:21;100470.09;;;41.95;16.01
60725;BME280;59881;36.722;-4.462;2023-05-29T09:47:50;100299.31;;;40.76;16.00
60725;BME280;59881;36.722;-4.462;2023-05-29T09:50:19;100624.50;;;42.70;15.26
60725;BME280;59881;36.722;-4.462;2023-05-29T09:52:48;100627.19;;;42.52;15.47
60725;BME280;59881;36.722;-4.462;2023-05-29T09:55:23;100328.69;;;40.22;15.90
60725;BME280;59881;36.722;-4.462;2023-05-29T09:57:48;100630.44;;;42.86;15.30
60725;BME280;59881;36.722;-4.462;2023-05-29T10:00:17;100571.06;;;42.69;15.25
60725;BME280;59881;36.722;-4.462;2023-05-29T10:02:43;100535.84;;;42.61;15.58
60725;BME280;59881;36.722;-4.462;2023-05-29T10:05:09;100518.75;;;42.68;14.84
60725;BME280;59881;36.722;-4.462;2023-05-29T10:07:37;100477.97;;;42.42;14.72
60725;BME280;59881;36.722;-4.462;2023-05-29T10:10:04;100151.06;;;40.09;14.62
60725;BME280;59881;36.722;-4.462;2023-05-29T10:12:44;100256.38;;;40.92;14.75
60725;BME280;59881;36.722;-4.462;2023-05-29T10:15:14;100368.97;;;42.12;14.95
60725;BME280;59881;36.722;-4.462;2023-05-29T10:17:52;100497.00;;;43.10;14.29
60725;BME280;59881;36.722;-4.462;2023-05-29T10:20:22;100275.41;;;41.56;14.33
60725;BME280;59881;36.722;-4.462;2023-05-29T10:22:50;100634.91;;;44.26;14.44
60725;BME280;59881;36.722;-4.462;2023-05-29T10:25:18;100630.66;;;44.46;13.98
60725;BME280;59881;36.722;-4.462;2023-05-29T10:27:45;100573.16;;;43.73;13.96
60725;BME280;59881;36.722;-4.462;2023-05-29T10:30:31;100637.38;;;44.28;13.90
60725;BME280;59881;36.722;-4.462;2023-05-29T10:36:05;100631.63;;;43.11;14.61
60725;BME280;59881;36.722;-4.462;2023-05-29T10:38:32;100281.09;;;39.19;15.74
60725;BME280;59881;36.722;-4.462;2023-05-29T10:43:56;100512.59;;;35.37;20.41
60725;BME280;59881;36.722;-4.462;2023-05-29T10:49:18;100630.47;;;32.99;24.06
60725;BME280;59881;36.722;-4.462;2023-05-29T10:51:44;100578.81;;;32.03;25.01
60725;BME280;59881;36.722;-4.462;2023-05-29T10:54:10;100396.97;;;30.27;26.31
60725;BME280;59881;36.722;-4.462;2023-05-29T10:56:36;100095.22;;;28.37;26.47
60725;BME280;59881;36.722;-4.462;2023-05-29T10:59:02;100135.59;;;28.38;26.81
60725;BME280;59881;36.722;-4.462;2023-05-29T11:01:29;100632.06;;;31.24;27.01
60725;BME280;59881;36.722;-4.462;2023-05-29T11:06:40;100626.88;;;30.52;26.99
60725;BME280;59881;36.722;-4.462;2023-05-29T11:09:35;100493.78;;;29.75;27.29
60725;BME280;59881;36.722;-4.462;2023-05-29T11:14:53;100559.44;;;29.95;27.62
60725;BME280;59881;36.722;-4.462;2023-05-29T11:20:05;100613.88;;;30.30;27.50
60725;BME280;59881;36.722;-4.462;2023-05-29T11:25:09;100622.84;;;30.31;28.47
60725;BME280;59881;36.722;-4.462;2023-05-29T11:27:35;100162.50;;;27.42;28.37
60725;BME280;59881;36.722;-4.462;2023-05-29T11:30:01;100618.94;;;30.27;28.15
60725;BME280;59881;36.722;-4.462;2023-05-29T11:32:27;100721.72;;;30.30;27.44
60725;BME280;59881;36.722;-4.462;2023-05-29T11:34:56;100354.53;;;28.48;27.43
60725;BME280;59881;36.722;-4.462;2023-05-29T11:37:24;100473.06;;;29.20;27.27
60725;BME280;59881;36.722;-4.462;2023-05-29T11:39:50;100606.00;;;30.10;27.76
60725;BME280;59881;36.722;-4.462;2023-05-29T11:42:16;100478.56;;;29.32;27.63
60725;BME280;59881;36.722;-4.462;2023-05-29T11:44:42;100546.22;;;29.57;27.82
60725;BME280;59881;36.722;-4.462;2023-05-29T11:47:07;100594.63;;;29.90;27.56
60725;BME280;59881;36.722;-4.462;2023-05-29T11:49:36;100207.38;;;27.50;27.82
60725;BME280;59881;36.722;-4.462;2023-05-29T11:54:33;100544.13;;;29.59;27.81
60725;BME280;59881;36.722;-4.462;2023-05-29T11:57:00;100533.25;;;29.59;27.37
60725;BME280;59881;36.722;-4.462;2023-05-29T11:59:28;100582.34;;;29.87;28.13
60725;BME280;59881;36.722;-4.462;2023-05-29T12:01:55;100581.34;;;29.70;28.01
60725;BME280;59881;36.722;-4.462;2023-05-29T12:04:20;100599.94;;;29.66;28.04
60725;BME280;59881;36.722;-4.462;2023-05-29T12:06:46;100506.03;;;29.35;27.73
60725;BME280;59881;36.722;-4.462;2023-05-29T12:09:23;100525.91;;;29.47;27.21
60725;BME280;59881;36.722;-4.462;2023-05-29T12:11:50;100528.28;;;29.86;26.99
60725;BME280;59881;36.722;-4.462;2023-05-29T12:14:16;100454.53;;;29.59;27.10
60725;BME280;59881;36.722;-4.462;2023-05-29T12:16:41;100553.31;;;30.00;26.51
60725;BME280;59881;36.722;-4.462;2023-05-29T12:19:07;100556.09;;;30.59;27.29
60725;BME280;59881;36.722;-4.462;2023-05-29T12:21:33;100328.97;;;28.74;26.75
60725;BME280;59881;36.722;-4.462;2023-05-29T12:23:58;100494.06;;;30.20;26.33
60725;BME280;59881;36.722;-4.462;2023-05-29T12:26:24;100480.50;;;30.32;25.55
60725;BME280;59881;36.722;-4.462;2023-05-29T12:28:51;100374.06;;;30.00;25.12
60725;BME280;59881;36.722;-4.462;2023-05-29T12:31:28;100288.88;;;29.54;24.79
60725;BME280;59881;36.722;-4.462;2023-05-29T12:34:01;100542.28;;;31.12;24.41
60725;BME280;59881;36.722;-4.462;2023-05-29T12:36:27;100534.56;;;31.21;25.14
60725;BME280;59881;36.722;-4.462;2023-05-29T12:38:53;100083.91;;;28.40;25.10
60725;BME280;59881;36.722;-4.462;2023-05-29T12:41:27;100531.38;;;31.24;25.12
60725;BME280;59881;36.722;-4.462;2023-05-29T12:43:56;100580.38;;;31.41;25.64
60725;BME280;59881;36.722;-4.462;2023-05-29T12:46:23;100556.47;;;31.55;24.57
60725;BME280;59881;36.722;-4.462;2023-05-29T12:48:49;100333.03;;;30.65;23.98
60725;BME280;59881;36.722;-4.462;2023-05-29T12:51:22;100491.88;;;31.67;24.68
60725;BME280;59881;36.722;-4.462;2023-05-29T12:53:47;100510.75;;;31.74;25.00
60725;BME280;59881;36.722;-4.462;2023-05-29T12:56:13;100518.00;;;31.51;24.49
60725;BME280;59881;36.722;-4.462;2023-05-29T12:58:38;100506.63;;;31.26;24.76
60725;BME280;59881;36.722;-4.462;2023-05-29T13:01:04;100027.59;;;28.18;25.08
60725;BME280;59881;36.722;-4.462;2023-05-29T13:03:29;100498.25;;;30.87;25.21
60725;BME280;59881;36.722;-4.462;2023-05-29T13:05:55;100413.84;;;30.18;25.34
60725;BME280;59881;36.722;-4.462;2023-05-29T13:08:21;100485.56;;;30.40;26.17